Time;durP1;ratioP1;P1;durP2;ratioP2;P2;SDS_P1;SDS_P2;PMS_P1;PMS_P2;Temp;Humidity;BMP_temperature;BMP_pressure;BME280_temperature;BME280_humidity;BME280_pressure;Samples;Min_cycle;Max_cycle;Signal;HPM_P1;HPM_P2
2022/11/22 00:00:30;;;;;;;29.63;17.08;;;4.50;99.90;;;;;;6064074;23;91735;-73
2022/11/22 00:02:56;;;;;;;25.40;15.82;;;4.50;99.90;;;;;;6039402;23;93233;-73
2022/11/22 00:05:23;;;;;;;28.25;16.35;;;4.50;99.90;;;;;;6064322;23;103056;-73
2022/11/22 00:07:50;;;;;;;30.38;16.80;;;4.50;99.90;;;;;;6063713;23;94698;-73
2022/11/22 00:10:17;;;;;;;28.88;17.33;;;4.40;99.90;;;;;;6063131;23;92449;-73
2022/11/22 00:12:44;;;;;;;29.77;18.00;;;4.40;99.90;;;;;;6064893;23;92412;-73
2022/11/22 00:15:12;;;;;;;31.88;17.80;;;4.40;99.90;;;;;;6062971;23;95680;-74
2022/11/22 00:17:38;;;;;;;28.67;16.33;;;4.40;99.90;;;;;;6065003;23;92372;-73
2022/11/22 00:20:07;;;;;;;30.17;17.77;;;4.40;99.90;;;;;;6064641;23;92628;-73
2022/11/22 00:22:34;;;;;;;31.92;17.30;;;4.40;99.90;;;;;;6064597;23;93357;-73
2022/11/22 00:25:06;;;;;;;35.08;18.73;;;4.40;99.90;;;;;;6063742;23;91834;-73
2022/11/22 00:27:34;;;;;;;33.13;16.77;;;4.40;99.90;;;;;;6063346;23;92390;-74
2022/11/22 00:30:01;;;;;;;33.00;17.38;;;4.40;99.90;;;;;;6063354;23;92647;-73
2022/11/22 00:32:28;;;;;;;30.25;17.30;;;4.40;99.90;;;;;;6062800;23;95579;-73
2022/11/22 00:34:54;;;;;;;31.17;18.92;;;4.40;99.90;;;;;;6064538;23;95461;-73
2022/11/22 00:37:21;;;;;;;32.58;17.83;;;4.40;99.90;;;;;;6062728;23;97252;-73
2022/11/22 00:39:48;;;;;;;36.45;18.80;;;4.40;99.90;;;;;;6064521;23;92852;-73
2022/11/22 00:42:15;;;;;;;33.42;18.50;;;4.40;99.90;;;;;;6064370;23;93281;-73
2022/11/22 00:44:42;;;;;;;30.15;16.67;;;4.50;99.90;;;;;;6064541;23;92928;-73
2022/11/22 00:47:09;;;;;;;36.40;18.95;;;4.40;99.90;;;;;;6064705;23;92386;-73
2022/11/22 00:49:36;;;;;;;34.30;18.00;;;4.50;99.90;;;;;;6064485;23;91765;-73
2022/11/22 00:52:03;;;;;;;34.03;18.02;;;4.50;99.90;;;;;;6064470;23;93042;-73
2022/11/22 00:54:30;;;;;;;34.10;17.77;;;4.50;99.90;;;;;;6064207;23;92478;-73
2022/11/22 00:56:57;;;;;;;30.50;17.23;;;4.50;99.90;;;;;;6062973;23;95008;-73
2022/11/22 00:59:24;;;;;;;33.30;19.50;;;4.50;99.90;;;;;;6040327;23;92464;-73
2022/11/22 01:01:51;;;;;;;37.00;18.70;;;4.50;99.90;;;;;;6064378;23;93186;-73
2022/11/22 01:04:18;;;;;;;36.45;19.38;;;4.50;99.90;;;;;;6065694;23;92827;-73
2022/11/22 01:06:44;;;;;;;35.08;17.60;;;4.50;99.90;;;;;;6066162;23;92424;-73
2022/11/22 01:09:17;;;;;;;29.48;16.90;;;4.50;99.90;;;;;;6065576;23;102081;-73
2022/11/22 01:11:44;;;;;;;36.10;19.63;;;4.50;99.90;;;;;;6066016;23;93607;-73
2022/11/22 01:14:11;;;;;;;38.35;20.88;;;4.50;99.90;;;;;;6064797;23;93197;-73
2022/11/22 01:16:38;;;;;;;34.60;19.15;;;4.50;99.90;;;;;;6065776;23;92388;-73
2022/11/22 01:19:05;;;;;;;31.45;19.10;;;4.50;99.90;;;;;;6064593;23;92451;-73
2022/11/22 01:21:32;;;;;;;34.58;20.23;;;4.50;99.90;;;;;;6062525;23;95562;-73
2022/11/22 01:23:59;;;;;;;38.40;21.02;;;4.50;99.90;;;;;;6063973;23;97356;-73
2022/11/22 01:26:26;;;;;;;38.72;20.08;;;4.50;99.90;;;;;;6065805;23;92410;-73
2022/11/22 01:28:53;;;;;;;35.50;20.20;;;4.50;99.90;;;;;;6066167;23;92791;-73
2022/11/22 01:31:20;;;;;;;29.10;16.75;;;4.50;99.90;;;;;;6063689;23;95700;-73
2022/11/22 01:33:47;;;;;;;37.08;20.23;;;4.50;99.90;;;;;;6064002;23;94793;-73
2022/11/22 01:36:14;;;;;;;33.92;19.00;;;4.50;99.90;;;;;;6040418;23;92432;-73
2022/11/22 01:38:41;;;;;;;34.58;21.67;;;4.50;99.90;;;;;;6066157;23;91665;-73
2022/11/22 01:41:08;;;;;;;32.55;18.00;;;4.60;99.90;;;;;;6064936;23;92901;-73
2022/11/22 01:43:35;;;;;;;36.30;21.58;;;4.60;99.90;;;;;;6040092;23;93075;-73
2022/11/22 01:46:14;;;;;;;29.67;19.65;;;4.60;99.90;;;;;;6062843;23;94736;-73
2022/11/22 01:48:59;;;;;;;34.47;21.65;;;4.60;99.90;;;;;;6064247;23;92451;-73
2022/11/22 01:51:38;;;;;;;31.90;19.35;;;4.60;99.90;;;;;;6064141;23;95635;-73
2022/11/22 01:54:12;;;;;;;32.25;18.38;;;4.60;99.90;;;;;;6064382;23;93162;-73
2022/11/22 01:56:42;;;;;;;34.58;20.40;;;4.60;99.90;;;;;;6064310;23;92505;-73
2022/11/22 01:59:13;;;;;;;31.35;18.58;;;4.60;99.90;;;;;;6064327;23;92349;-73
2022/11/22 02:01:40;;;;;;;30.80;19.80;;;4.60;99.90;;;;;;6065371;23;95786;-73
2022/11/22 02:04:10;;;;;;;26.58;15.18;;;4.60;99.90;;;;;;6040601;23;92718;-73
2022/11/22 02:07:10;;;;;;;32.13;19.83;;;4.60;99.90;;;;;;6065813;23;93180;-73
2022/11/22 02:09:39;;;;;;;33.72;18.30;;;4.60;99.90;;;;;;6064419;23;92326;-73
2022/11/22 02:12:08;;;;;;;34.58;19.27;;;4.60;99.90;;;;;;6064191;23;95512;-73
2022/11/22 02:14:37;;;;;;;33.28;19.77;;;4.60;99.90;;;;;;6065477;23;95426;-73
2022/11/22 02:17:04;;;;;;;35.35;19.50;;;4.70;99.90;;;;;;6040386;23;92643;-73
2022/11/22 02:19:36;;;;;;;38.60;18.65;;;4.60;99.90;;;;;;6039778;23;92431;-73
2022/11/22 02:22:17;;;;;;;38.50;21.10;;;4.60;99.90;;;;;;6065600;23;93579;-73
2022/11/22 02:24:52;;;;;;;35.20;19.80;;;4.60;99.90;;;;;;6063952;23;93010;-73
2022/11/22 02:27:19;;;;;;;36.63;18.60;;;4.60;99.90;;;;;;6065952;23;92459;-73
2022/11/22 02:29:46;;;;;;;33.60;18.25;;;4.60;99.90;;;;;;6064288;23;91794;-73
2022/11/22 02:32:13;;;;;;;33.83;18.38;;;4.60;99.90;;;;;;6064080;23;94410;-73
2022/11/22 02:34:46;;;;;;;35.35;19.08;;;4.60;99.90;;;;;;6063609;23;95619;-73
2022/11/22 02:37:21;;;;;;;38.67;19.73;;;4.60;99.90;;;;;;6064473;23;94679;-73
2022/11/22 02:39:54;;;;;;;33.80;18.85;;;4.60;99.90;;;;;;6065534;23;92867;-73
2022/11/22 02:42:24;;;;;;;37.35;19.73;;;4.60;99.90;;;;;;6065741;23;93165;-73
2022/11/22 02:44:51;;;;;;;39.85;21.05;;;4.60;99.90;;;;;;6063437;23;95579;-73
2022/11/22 02:47:17;;;;;;;38.47;20.10;;;4.60;99.90;;;;;;6039395;23;104133;-73
2022/11/22 02:49:44;;;;;;;32.95;20.30;;;4.60;99.90;;;;;;6064051;23;92423;-73
2022/11/22 02:52:16;;;;;;;28.83;16.98;;;4.60;99.90;;;;;;6065586;23;93199;-73
2022/11/22 02:54:43;;;;;;;35.92;20.10;;;4.60;99.90;;;;;;6065900;23;92821;-73
2022/11/22 02:57:10;;;;;;;32.97;17.90;;;4.60;99.90;;;;;;6039689;23;92432;-73
2022/11/22 02:59:37;;;;;;;37.00;20.25;;;4.60;99.90;;;;;;6065568;23;92405;-73
2022/11/22 03:02:04;;;;;;;37.33;20.27;;;4.60;99.90;;;;;;6063850;23;95692;-73
2022/11/22 03:04:31;;;;;;;35.22;20.00;;;4.60;99.90;;;;;;6063731;23;95327;-73
2022/11/22 03:06:58;;;;;;;33.60;17.48;;;4.60;99.90;;;;;;6065629;23;92403;-73
2022/11/22 03:09:26;;;;;;;43.63;20.17;;;4.60;99.90;;;;;;6065712;23;92423;-73
2022/11/22 03:11:53;;;;;;;35.13;19.67;;;4.60;99.90;;;;;;6062218;23;109543;-73
2022/11/22 03:14:21;;;;;;;36.55;20.27;;;4.60;99.90;;;;;;6063980;23;92812;-73
2022/11/22 03:16:48;;;;;;;33.70;18.63;;;4.60;99.90;;;;;;6065357;23;92390;-73
2022/11/22 03:19:15;;;;;;;38.58;22.55;;;4.60;99.90;;;;;;6064332;23;91691;-73
2022/11/22 03:21:43;;;;;;;37.28;19.00;;;4.60;99.90;;;;;;6064988;23;93260;-73
2022/11/22 03:24:11;;;;;;;37.92;19.35;;;4.60;99.90;;;;;;6063811;23;92876;-73
2022/11/22 03:26:38;;;;;;;25.13;14.10;;;4.60;99.90;;;;;;6063875;23;95105;-73
2022/11/22 03:29:05;;;;;;;38.40;19.33;;;4.60;99.90;;;;;;6065473;23;92381;-73
2022/11/22 03:31:32;;;;;;;39.13;19.15;;;4.60;99.90;;;;;;6063515;23;95982;-73
2022/11/22 03:33:59;;;;;;;38.50;18.65;;;4.60;99.90;;;;;;6039172;23;95631;-73
2022/11/22 03:36:26;;;;;;;42.70;17.98;;;4.60;99.90;;;;;;6065565;23;92475;-73
2022/11/22 03:38:53;;;;;;;39.80;18.13;;;4.70;99.90;;;;;;6063661;23;92473;-73
2022/11/22 03:41:20;;;;;;;29.63;17.15;;;4.70;99.90;;;;;;6065040;23;93159;-73
2022/11/22 03:43:47;;;;;;;24.70;12.88;;;4.70;99.90;;;;;;6065293;23;92891;-73
2022/11/22 03:46:15;;;;;;;25.70;14.45;;;4.70;99.90;;;;;;6063975;23;92401;-73
2022/11/22 03:48:42;;;;;;;26.90;14.50;;;4.70;99.90;;;;;;6039088;23;93951;-73
2022/11/22 03:51:09;;;;;;;33.05;17.92;;;4.60;99.90;;;;;;6062068;23;95652;-73
2022/11/22 03:53:36;;;;;;;32.92;18.48;;;4.70;99.90;;;;;;6063218;23;98423;-73
2022/11/22 03:56:04;;;;;;;33.22;18.38;;;4.70;99.90;;;;;;6065261;23;92359;-73
2022/11/22 03:58:31;;;;;;;31.27;18.70;;;4.70;99.90;;;;;;6039580;23;92468;-73
2022/11/22 04:00:58;;;;;;;28.95;14.75;;;4.80;99.90;;;;;;6063007;23;95859;-73
2022/11/22 04:03:25;;;;;;;27.50;16.40;;;4.70;99.90;;;;;;6063367;23;94086;-73
2022/11/22 04:05:52;;;;;;;25.73;14.88;;;4.70;99.90;;;;;;6038591;23;101431;-73
2022/11/22 04:08:19;;;;;;;28.70;15.77;;;4.70;99.90;;;;;;6065672;23;92605;-73
2022/11/22 04:10:51;;;;;;;26.67;16.92;;;4.70;99.90;;;;;;6062875;23;95705;-73
2022/11/22 04:13:18;;;;;;;32.83;17.83;;;4.70;99.90;;;;;;6063415;23;93075;-73
2022/11/22 04:15:45;;;;;;;33.13;17.23;;;4.80;99.90;;;;;;6061743;23;94867;-73
2022/11/22 04:18:13;;;;;;;30.17;16.50;;;4.80;99.90;;;;;;6063351;23;92425;-73
2022/11/22 04:23:26;;;;;;;29.42;16.38;;;4.80;99.90;;;;;;6063946;23;95383;-73
2022/11/22 04:25:59;;;;;;;33.20;16.02;;;4.80;99.90;;;;;;6064574;23;92469;-73
2022/11/22 04:28:26;;;;;;;32.47;17.58;;;4.80;99.90;;;;;;6064917;23;92373;-73
2022/11/22 04:33:58;;;;;;;26.42;16.77;;;4.80;99.90;;;;;;6066533;23;92898;-73
2022/11/22 04:36:25;;;;;;;29.35;17.25;;;4.80;99.90;;;;;;6064595;23;92426;-73
2022/11/22 04:38:52;;;;;;;22.50;13.85;;;4.80;99.90;;;;;;6064415;23;93308;-73
2022/11/22 04:41:19;;;;;;;31.92;17.52;;;4.80;99.90;;;;;;6062645;23;98119;-73
2022/11/22 04:46:31;;;;;;;23.17;15.10;;;4.90;99.90;;;;;;6064702;23;92425;-73
2022/11/22 04:48:58;;;;;;;23.05;12.73;;;4.90;99.90;;;;;;6064327;23;92526;-73
2022/11/22 04:54:10;;;;;;;28.48;15.35;;;4.90;99.90;;;;;;6065818;23;93090;-73
2022/11/22 04:56:37;;;;;;;30.55;17.90;;;5.00;99.90;;;;;;6064839;23;92896;-73
2022/11/22 04:59:04;;;;;;;25.05;14.88;;;5.00;99.90;;;;;;6064956;23;91700;-73
2022/11/22 05:01:31;;;;;;;24.48;12.88;;;5.00;99.90;;;;;;6066008;23;93132;-73
2022/11/22 05:03:58;;;;;;;21.23;13.38;;;5.00;99.90;;;;;;6065663;23;92644;-73
2022/11/22 05:06:25;;;;;;;27.35;16.60;;;5.00;99.90;;;;;;6063240;23;94835;-73
2022/11/22 05:08:52;;;;;;;27.05;16.65;;;5.00;99.90;;;;;;6065892;23;92478;-73
2022/11/22 05:11:19;;;;;;;29.10;15.68;;;5.10;99.90;;;;;;6064010;23;103191;-73
2022/11/22 05:13:46;;;;;;;22.77;13.43;;;5.10;99.90;;;;;;6065980;23;92450;-73
2022/11/22 05:16:14;;;;;;;24.92;16.48;;;5.10;99.90;;;;;;6064130;23;92335;-73
2022/11/22 05:18:42;;;;;;;27.75;16.30;;;5.20;99.90;;;;;;6066161;23;92392;-73
2022/11/22 05:21:13;;;;;;;31.17;18.38;;;5.20;99.90;;;;;;6065662;23;93047;-73
2022/11/22 05:23:55;;;;;;;30.35;18.20;;;5.20;99.90;;;;;;6066270;23;93063;-73
2022/11/22 05:26:27;;;;;;;29.10;17.63;;;5.30;99.90;;;;;;6066186;23;92283;-73
2022/11/22 05:28:56;;;;;;;26.75;16.10;;;5.20;99.90;;;;;;6064377;23;92624;-73
2022/11/22 05:31:26;;;;;;;27.13;15.77;;;5.30;99.90;;;;;;6064350;23;95955;-73
2022/11/22 05:33:55;;;;;;;26.98;15.32;;;5.30;99.90;;;;;;6063266;23;97764;-73
2022/11/22 05:36:22;;;;;;;26.30;15.57;;;5.30;99.90;;;;;;6064548;23;92351;-73
2022/11/22 05:38:50;;;;;;;30.05;15.98;;;5.30;99.90;;;;;;6064287;23;92369;-73
2022/11/22 05:41:17;;;;;;;29.75;17.85;;;5.30;99.90;;;;;;6063016;23;110161;-73
2022/11/22 05:43:44;;;;;;;27.70;15.20;;;5.40;99.90;;;;;;6040347;23;93153;-73
2022/11/22 05:46:13;;;;;;;27.13;15.43;;;5.40;99.90;;;;;;6065816;23;92290;-73
2022/11/22 05:48:44;;;;;;;28.58;16.75;;;5.40;99.90;;;;;;6065007;23;91750;-73
2022/11/22 05:51:13;;;;;;;26.25;17.05;;;5.50;99.90;;;;;;6065606;23;93079;-73
2022/11/22 05:53:41;;;;;;;28.20;16.95;;;5.50;99.90;;;;;;6064056;23;94171;-73
2022/11/22 05:56:13;;;;;;;25.75;15.02;;;5.50;99.90;;;;;;6064332;23;94818;-73
2022/11/22 05:58:40;;;;;;;28.15;16.75;;;5.50;99.90;;;;;;6064644;23;92436;-73
2022/11/22 06:01:22;;;;;;;26.58;17.33;;;5.50;99.90;;;;;;6065515;23;93174;-73
2022/11/22 06:03:49;;;;;;;27.38;16.70;;;5.60;99.90;;;;;;6064318;23;95562;-73
2022/11/22 06:06:17;;;;;;;27.63;14.15;;;5.50;99.90;;;;;;6065852;23;92400;-73
2022/11/22 06:08:46;;;;;;;25.52;15.68;;;5.50;99.90;;;;;;6065987;23;92860;-73
2022/11/22 06:11:17;;;;;;;26.73;15.70;;;5.60;99.90;;;;;;6065387;23;93316;-73
2022/11/22 06:13:46;;;;;;;29.20;16.10;;;5.60;99.90;;;;;;6066156;23;91874;-73
2022/11/22 06:16:14;;;;;;;25.95;15.88;;;5.60;99.90;;;;;;6064086;23;92402;-73
2022/11/22 06:18:41;;;;;;;26.35;15.75;;;5.60;99.90;;;;;;6064135;23;92469;-73
2022/11/22 06:21:13;;;;;;;25.15;16.23;;;5.60;99.90;;;;;;6062088;23;98455;-73
2022/11/22 06:23:40;;;;;;;28.25;15.80;;;5.70;99.90;;;;;;6063888;23;97068;-73
2022/11/22 06:26:12;;;;;;;30.80;16.98;;;5.70;99.90;;;;;;6064803;23;105873;-73
2022/11/22 06:28:40;;;;;;;26.67;16.40;;;5.70;99.90;;;;;;6064597;23;93265;-73
2022/11/22 06:31:20;;;;;;;29.23;17.23;;;5.70;99.90;;;;;;6065610;23;93146;-73
2022/11/22 06:33:47;;;;;;;27.10;15.77;;;5.70;99.90;;;;;;6065907;23;92891;-73
2022/11/22 06:36:17;;;;;;;25.20;16.60;;;5.70;99.90;;;;;;6065551;23;92317;-73
2022/11/22 06:38:44;;;;;;;27.73;16.77;;;5.80;99.90;;;;;;6064332;23;92059;-73
2022/11/22 06:41:16;;;;;;;29.35;16.98;;;5.80;99.90;;;;;;6065141;23;93006;-73
2022/11/22 06:43:45;;;;;;;28.65;16.95;;;5.80;99.90;;;;;;6040514;23;95540;-73
2022/11/22 06:46:16;;;;;;;25.20;15.23;;;5.80;99.90;;;;;;6063135;23;94742;-73
2022/11/22 06:48:43;;;;;;;22.08;13.32;;;5.80;99.90;;;;;;6065831;23;92493;-73
2022/11/22 06:51:15;;;;;;;32.20;17.65;;;5.80;99.90;;;;;;6065301;23;93078;-73
2022/11/22 06:53:42;;;;;;;27.60;15.27;;;5.80;99.90;;;;;;6064047;23;92822;-73
2022/11/22 06:56:19;;;;;;;24.35;15.15;;;5.90;99.90;;;;;;6064044;23;92959;-73
2022/11/22 06:58:47;;;;;;;26.17;16.70;;;5.90;99.90;;;;;;6064089;23;92544;-73
2022/11/22 07:01:19;;;;;;;29.70;16.35;;;5.90;99.90;;;;;;6063854;23;93200;-73
2022/11/22 07:03:47;;;;;;;29.10;14.65;;;6.00;99.90;;;;;;6065749;23;91951;-73
2022/11/22 07:06:16;;;;;;;25.35;14.95;;;6.00;99.90;;;;;;6064711;23;104016;-73
2022/11/22 07:08:44;;;;;;;27.80;15.32;;;6.00;99.90;;;;;;6064376;23;92956;-73
2022/11/22 07:11:14;;;;;;;25.25;13.93;;;6.00;99.90;;;;;;6063652;23;95481;-73
2022/11/22 07:13:42;;;;;;;23.08;14.65;;;6.10;99.90;;;;;;6065337;23;95288;-73
2022/11/22 07:16:11;;;;;;;22.67;14.35;;;6.10;99.90;;;;;;6065282;23;92435;-73
2022/11/22 07:18:39;;;;;;;22.00;11.70;;;6.20;99.90;;;;;;6063624;23;92364;-73
2022/11/22 07:21:15;;;;;;;20.30;12.45;;;6.20;99.90;;;;;;6065376;23;93194;-73
2022/11/22 07:23:44;;;;;;;21.48;12.23;;;6.20;99.90;;;;;;6065244;23;93077;-73
2022/11/22 07:26:12;;;;;;;21.75;13.20;;;6.30;99.90;;;;;;6038948;23;92458;-73
2022/11/22 07:28:39;;;;;;;18.77;12.35;;;6.40;99.90;;;;;;6064183;23;92230;-73
2022/11/22 07:31:09;;;;;;;20.10;13.93;;;6.40;99.90;;;;;;6065355;23;93082;-73
2022/11/22 07:33:36;;;;;;;20.58;13.38;;;6.40;99.90;;;;;;6065417;23;92910;-73
2022/11/22 07:36:08;;;;;;;19.45;12.07;;;6.50;99.90;;;;;;6062263;23;94785;-73
2022/11/22 07:38:36;;;;;;;19.35;11.52;;;6.50;99.90;;;;;;6065463;23;92384;-73
2022/11/22 07:41:03;;;;;;;18.35;11.60;;;6.50;99.90;;;;;;6063318;23;93705;-73
2022/11/22 07:43:30;;;;;;;19.17;10.60;;;6.60;99.90;;;;;;6064934;23;92988;-73
2022/11/22 07:46:01;;;;;;;17.17;10.25;;;6.60;99.90;;;;;;6065320;23;92413;-73
2022/11/22 07:48:28;;;;;;;19.95;11.88;;;6.70;99.90;;;;;;6063497;23;92354;-73
2022/11/22 07:50:55;;;;;;;22.23;12.40;;;6.70;99.90;;;;;;6039124;23;95628;-73
2022/11/22 07:53:23;;;;;;;19.77;10.98;;;6.80;99.90;;;;;;6065128;23;91933;-73
2022/11/22 07:55:50;;;;;;;15.32;8.88;;;6.80;99.90;;;;;;6065205;23;92403;-73
2022/11/22 07:58:17;;;;;;;16.58;9.50;;;6.80;99.90;;;;;;6066377;23;92407;-73
2022/11/22 08:00:44;;;;;;;19.73;9.80;;;6.90;99.90;;;;;;6065593;23;95694;-73
2022/11/22 08:03:11;;;;;;;18.52;8.73;;;7.00;99.90;;;;;;6065282;23;94401;-73
2022/11/22 08:05:43;;;;;;;14.77;7.30;;;7.10;99.90;;;;;;6065529;23;92422;-73
2022/11/22 08:08:10;;;;;;;15.48;7.68;;;7.10;99.90;;;;;;6065585;23;92425;-73
2022/11/22 08:10:37;;;;;;;16.45;9.20;;;7.20;99.90;;;;;;6066832;23;93434;-73
2022/11/22 08:13:05;;;;;;;16.30;7.93;;;7.30;99.90;;;;;;6065245;23;94893;-74
2022/11/22 08:15:32;;;;;;;14.07;6.53;;;7.40;99.90;;;;;;6065361;23;92449;-73
2022/11/22 08:17:59;;;;;;;20.80;7.75;;;7.40;99.90;;;;;;6065744;23;91787;-73
2022/11/22 08:20:26;;;;;;;11.15;6.72;;;7.40;99.90;;;;;;6064994;23;94205;-74
2022/11/22 08:22:53;;;;;;;14.90;7.93;;;7.50;99.90;;;;;;6064854;23;101217;-73
2022/11/22 08:25:20;;;;;;;11.40;5.93;;;7.50;99.90;;;;;;6065338;23;94784;-73
2022/11/22 08:27:47;;;;;;;13.27;6.60;;;7.60;99.90;;;;;;6065642;23;92409;-73
2022/11/22 08:30:14;;;;;;;15.93;7.03;;;7.70;99.90;;;;;;6065276;23;93316;-73
2022/11/22 08:32:41;;;;;;;15.40;7.13;;;7.70;99.90;;;;;;6066557;23;92926;-73
2022/11/22 08:35:08;;;;;;;9.05;5.45;;;7.80;99.90;;;;;;6065586;23;92646;-73
2022/11/22 08:37:35;;;;;;;14.43;5.88;;;7.80;99.90;;;;;;6065008;23;93091;-74
2022/11/22 08:40:02;;;;;;;15.10;5.75;;;7.80;99.90;;;;;;6064893;23;93255;-74
2022/11/22 08:42:29;;;;;;;13.40;5.38;;;7.80;99.90;;;;;;6065352;23;95414;-74
2022/11/22 08:44:56;;;;;;;8.43;4.68;;;7.90;99.90;;;;;;6065151;23;92438;-74
2022/11/22 08:47:23;;;;;;;10.45;4.70;;;7.90;99.90;;;;;;6065291;23;92977;-73
2022/11/22 08:49:50;;;;;;;8.50;4.90;;;8.00;99.90;;;;;;6065125;23;95557;-74
2022/11/22 08:52:17;;;;;;;9.13;3.80;;;8.00;99.90;;;;;;6066565;23;95419;-74
2022/11/22 08:54:44;;;;;;;9.43;3.38;;;8.10;99.90;;;;;;6040805;23;92399;-74
2022/11/22 08:57:11;;;;;;;13.57;4.25;;;8.20;99.90;;;;;;6065161;23;93229;-74
2022/11/22 08:59:38;;;;;;;8.40;3.50;;;8.20;99.90;;;;;;6066453;23;93258;-74
2022/11/22 09:02:05;;;;;;;9.48;3.22;;;8.20;99.90;;;;;;6064927;23;95630;-74
2022/11/22 09:04:32;;;;;;;8.80;3.38;;;8.20;99.90;;;;;;6066651;23;92765;-74
2022/11/22 09:06:59;;;;;;;8.05;3.10;;;8.20;99.90;;;;;;6067278;23;91670;-74
2022/11/22 09:09:46;;;;;;;12.15;3.25;;;8.20;99.90;;;;;;6065840;23;93446;-73
2022/11/22 09:12:13;;;;;;;8.82;3.25;;;8.10;99.90;;;;;;6040767;23;95501;-74
2022/11/22 09:14:40;;;;;;;8.57;3.38;;;8.10;99.90;;;;;;6063658;23;94891;-74
2022/11/22 09:17:07;;;;;;;11.23;5.97;;;8.10;99.90;;;;;;6065417;23;92982;-74
2022/11/22 09:19:37;;;;;;;17.50;6.35;;;8.10;99.90;;;;;;6064805;23;94299;-74
2022/11/22 09:22:04;;;;;;;12.48;6.95;;;8.10;99.90;;;;;;6064285;23;109637;-74
2022/11/22 09:24:31;;;;;;;13.10;6.47;;;8.20;99.90;;;;;;6066511;23;92386;-74
2022/11/22 09:26:58;;;;;;;13.75;5.15;;;8.20;99.90;;;;;;6065295;23;92459;-74
2022/11/22 09:29:25;;;;;;;11.25;4.15;;;8.20;99.90;;;;;;6064743;23;95736;-74
2022/11/22 09:31:52;;;;;;;9.63;3.70;;;8.20;99.90;;;;;;6065560;23;92740;-74
2022/11/22 09:34:19;;;;;;;8.75;4.18;;;8.20;99.90;;;;;;6066815;23;92435;-74
2022/11/22 09:36:46;;;;;;;10.20;3.53;;;8.20;99.90;;;;;;6066461;23;92388;-74
2022/11/22 09:39:13;;;;;;;10.52;3.80;;;8.30;99.90;;;;;;6063152;23;98147;-74
2022/11/22 09:42:12;;;;;;;12.93;11.63;;;8.40;99.90;;;;;;6064318;23;97276;-74
2022/11/22 09:45:00;;;;;;;14.38;3.20;;;8.60;99.90;;;;;;6056148;23;92561;-74
2022/11/22 09:47:53;;;;;;;8.10;2.95;;;8.60;99.90;;;;;;6066685;23;92442;-74
2022/11/22 09:50:58;;;;;;;9.55;3.58;;;8.70;99.90;;;;;;6066485;23;92836;-74
2022/11/22 09:53:53;;;;;;;7.45;4.10;;;8.70;99.90;;;;;;6045394;23;95832;-74
2022/11/22 09:56:24;;;;;;;9.50;3.35;;;8.80;99.90;;;;;;6061028;23;92830;-74
2022/11/22 09:59:01;;;;;;;10.73;4.32;;;8.80;99.90;;;;;;6066904;23;91577;-74
2022/11/22 10:02:02;;;;;;;12.05;8.27;;;8.90;99.90;;;;;;6064813;23;95960;-74
2022/11/22 10:04:59;;;;;;;12.52;4.82;;;8.90;99.90;;;;;;6066089;23;92983;-74
2022/11/22 10:07:44;;;;;;;9.18;3.45;;;9.00;99.90;;;;;;6065293;23;95223;-74
2022/11/22 10:10:23;;;;;;;8.45;2.92;;;9.00;99.90;;;;;;6065127;23;93419;-74
2022/11/22 10:13:16;;;;;;;7.07;2.88;;;9.10;99.90;;;;;;6066215;23;93126;-74
2022/11/22 10:15:50;;;;;;;10.98;2.65;;;9.30;99.90;;;;;;6066169;23;92963;-74
2022/11/22 10:18:28;;;;;;;9.23;2.70;;;9.20;99.90;;;;;;6065053;23;92467;-74
2022/11/22 10:20:54;;;;;;;10.55;3.30;;;9.20;99.90;;;;;;6064538;23;92496;-74
2022/11/22 10:23:24;;;;;;;7.70;4.05;;;9.20;99.90;;;;;;6064801;23;93240;-74
2022/11/22 10:26:03;;;;;;;6.97;2.67;;;9.30;99.90;;;;;;6066432;23;91783;-74
2022/11/22 10:28:54;;;;;;;7.95;3.22;;;9.30;99.90;;;;;;6065063;23;92478;-74
2022/11/22 10:31:43;;;;;;;7.55;2.45;;;9.30;99.90;;;;;;6066589;23;92446;-74
2022/11/22 10:34:14;;;;;;;10.82;3.38;;;9.40;99.90;;;;;;6064957;23;95779;-74
2022/11/22 10:36:54;;;;;;;11.35;5.40;;;9.40;99.90;;;;;;6065720;23;95450;-74
2022/11/22 10:39:53;;;;;;;9.43;3.75;;;9.30;99.90;;;;;;6066583;23;92418;-74
2022/11/22 10:42:38;;;;;;;10.70;3.83;;;9.40;99.90;;;;;;6066465;23;92284;-74
2022/11/22 10:45:26;;;;;;;9.85;8.93;;;9.40;99.90;;;;;;6066216;23;93234;-74
2022/11/22 10:48:20;;;;;;;14.07;8.85;;;9.40;99.90;;;;;;6066055;23;93048;-74
2022/11/22 10:50:53;;;;;;;7.30;2.80;;;9.50;99.90;;;;;;6064607;23;92378;-74
2022/11/22 10:53:51;;;;;;;8.88;4.18;;;9.50;99.90;;;;;;6065089;23;91660;-74
2022/11/22 10:56:55;;;;;;;7.50;1.90;;;9.60;99.90;;;;;;6064833;23;93350;-74
2022/11/22 10:59:41;;;;;;;6.55;1.42;;;9.60;99.90;;;;;;6066203;23;92827;-74
2022/11/22 11:02:25;;;;;;;3.38;1.98;;;9.70;99.90;;;;;;6065072;23;94789;-74
2022/11/22 11:04:55;;;;;;;5.72;2.10;;;9.80;99.90;;;;;;6066049;23;92325;-74
2022/11/22 11:07:23;;;;;;;6.28;2.08;;;9.80;99.90;;;;;;6064231;23;95460;-74
2022/11/22 11:09:58;;;;;;;7.05;1.85;;;9.90;99.90;;;;;;6064003;23;95664;-74
2022/11/22 11:12:49;;;;;;;5.25;1.60;;;9.90;99.90;;;;;;6066159;23;92376;-74
2022/11/22 11:15:42;;;;;;;7.85;2.00;;;9.90;99.90;;;;;;6066304;23;92430;-74
2022/11/22 11:18:27;;;;;;;4.60;1.98;;;10.00;99.90;;;;;;6066193;23;92982;-74
2022/11/22 11:20:54;;;;;;;3.85;2.00;;;10.00;99.90;;;;;;6066244;23;92925;-74
2022/11/22 11:23:21;;;;;;;9.85;2.47;;;10.00;99.90;;;;;;6066399;23;92969;-74
2022/11/22 11:25:51;;;;;;;5.47;2.08;;;10.00;99.90;;;;;;6064448;23;92421;-74
2022/11/22 11:28:18;;;;;;;4.13;1.88;;;10.00;99.90;;;;;;6062558;23;98149;-74
2022/11/22 11:31:09;;;;;;;2.97;1.40;;;10.00;99.90;;;;;;6063846;23;97864;-74
2022/11/22 11:33:38;;;;;;;5.00;1.77;;;9.90;99.90;;;;;;6064265;23;92436;-74
2022/11/22 11:36:05;;;;;;;6.95;2.00;;;9.80;99.90;;;;;;6066058;23;92759;-74
2022/11/22 11:38:41;;;;;;;5.32;1.90;;;9.90;99.90;;;;;;6065842;23;93167;-74
2022/11/22 11:41:24;;;;;;;6.85;1.88;;;9.90;99.90;;;;;;6064748;23;92915;-74
2022/11/22 11:43:54;;;;;;;3.47;1.23;;;10.00;99.90;;;;;;6065917;23;92372;-74
2022/11/22 11:46:26;;;;;;;6.75;2.00;;;9.90;99.90;;;;;;6064266;23;91879;-74
2022/11/22 11:48:55;;;;;;;6.82;1.75;;;9.90;99.90;;;;;;6063964;23;93330;-74
2022/11/22 11:51:36;;;;;;;9.10;1.55;;;10.00;99.90;;;;;;6065605;23;92996;-74
2022/11/22 11:54:09;;;;;;;7.90;1.90;;;10.10;99.90;;;;;;6062632;23;94901;-74
2022/11/22 11:56:50;;;;;;;9.85;1.92;;;10.20;99.90;;;;;;6066240;23;92463;-74
2022/11/22 11:59:22;;;;;;;6.50;1.83;;;10.20;99.90;;;;;;6064179;23;95636;-74
2022/11/22 12:02:15;;;;;;;4.25;1.70;;;10.20;99.90;;;;;;6039633;23;95763;-74
2022/11/22 12:05:01;;;;;;;7.35;2.05;;;10.30;99.90;;;;;;6065847;23;92477;-74
2022/11/22 12:07:34;;;;;;;3.75;1.80;;;10.30;99.90;;;;;;6065985;23;93468;-74
2022/11/22 12:10:22;;;;;;;11.45;10.15;;;10.30;99.90;;;;;;6065576;23;92891;-74
2022/11/22 12:12:55;;;;;;;6.75;3.08;;;10.30;99.90;;;;;;6063485;23;92982;-74
2022/11/22 12:15:33;;;;;;;4.70;2.08;;;10.40;99.90;;;;;;6064363;23;92409;-74
2022/11/22 12:18:23;;;;;;;6.65;3.00;;;10.40;99.90;;;;;;6065655;23;92365;-74
2022/11/22 12:21:14;;;;;;;6.30;1.88;;;10.50;99.90;;;;;;6062096;23;98278;-74
2022/11/22 12:23:59;;;;;;;7.20;1.63;;;10.40;99.90;;;;;;6063980;23;95220;-74
2022/11/22 12:26:46;;;;;;;7.70;2.83;;;10.40;99.90;;;;;;6064069;23;92936;-74
2022/11/22 12:29:14;;;;;;;9.20;2.30;;;10.30;99.90;;;;;;6063651;23;92524;-74
2022/11/22 12:32:17;;;;;;;8.32;4.03;;;10.30;99.90;;;;;;6063938;23;93190;-74
2022/11/22 12:35:02;;;;;;;6.10;2.50;;;10.40;99.90;;;;;;6061155;23;92824;-74
2022/11/22 12:37:38;;;;;;;4.68;1.88;;;10.40;99.90;;;;;;6064366;23;92905;-74
2022/11/22 12:40:31;;;;;;;8.68;1.73;;;10.40;99.90;;;;;;6065750;23;92296;-74
2022/11/22 12:43:04;;;;;;;7.57;3.20;;;10.50;99.90;;;;;;6063278;23;96707;-74
2022/11/22 12:45:39;;;;;;;6.60;2.65;;;10.30;99.90;;;;;;6066682;23;92957;-74
2022/11/22 12:48:29;;;;;;;5.80;3.05;;;10.30;99.90;;;;;;6065300;23;94856;-74
2022/11/22 12:51:02;;;;;;;3.72;2.13;;;10.30;99.90;;;;;;6089359;23;92430;-74
2022/11/22 12:53:35;;;;;;;6.60;1.63;;;10.20;99.90;;;;;;6066831;23;93878;-74
2022/11/22 12:56:08;;;;;;;;;;;10.20;99.90;;;;;;6065449;23;95717;-74
2022/11/22 12:59:01;;;;;;;6.75;2.35;;;10.10;99.90;;;;;;6067072;23;92928;-74
2022/11/22 13:01:30;;;;;;;8.50;2.42;;;10.00;99.90;;;;;;6041013;23;92516;-74
2022/11/22 13:04:21;;;;;;;5.93;1.90;;;10.10;99.90;;;;;;6066456;23;93100;-74
2022/11/22 13:07:15;;;;;;;5.05;2.00;;;10.10;99.90;;;;;;6059153;23;92927;-74
2022/11/22 13:09:50;;;;;;;7.18;2.35;;;10.10;99.90;;;;;;6065352;23;92596;-74
2022/11/22 13:12:25;;;;;;;9.18;2.30;;;10.10;99.90;;;;;;6066728;23;93236;-74
2022/11/22 13:14:54;;;;;;;5.70;1.60;;;10.10;99.90;;;;;;6065286;23;95504;-74
2022/11/22 13:17:23;;;;;;;3.78;1.67;;;10.00;99.90;;;;;;6066350;23;98027;-74